createdAt,value
2023-02-07T00:00:51.552Z,3.45
2023-02-07T00:03:18.023Z,3.95
2023-02-07T00:05:44.418Z,3.33
2023-02-07T00:08:10.870Z,2.67
2023-02-07T00:10:37.373Z,3.22
2023-02-07T00:13:06.258Z,3.03
2023-02-07T00:15:32.835Z,3.58
2023-02-07T00:17:59.221Z,2.93
2023-02-07T00:20:25.572Z,2.72
2023-02-07T00:22:52.263Z,3.20
2023-02-07T00:25:18.686Z,4.28
2023-02-07T00:27:45.127Z,3.42
2023-02-07T00:30:12.058Z,2.67
2023-02-07T00:32:38.411Z,2.40
2023-02-07T00:35:05.263Z,2.60
2023-02-07T00:37:31.644Z,2.88
2023-02-07T00:39:57.971Z,3.10
2023-02-07T00:42:24.395Z,3.50
2023-02-07T00:44:50.742Z,2.58
2023-02-07T00:47:17.154Z,2.88
2023-02-07T00:49:43.481Z,3.00
2023-02-07T00:52:09.846Z,2.78
2023-02-07T00:54:36.185Z,2.83
2023-02-07T00:57:03.087Z,2.75
2023-02-07T00:59:29.499Z,2.63
2023-02-07T01:01:55.863Z,3.13
2023-02-07T01:04:22.250Z,3.08
2023-02-07T01:06:48.645Z,2.23
2023-02-07T01:09:15.049Z,3.53
2023-02-07T01:11:41.408Z,3.88
2023-02-07T01:14:07.775Z,2.70
2023-02-07T01:16:36.009Z,5.03
2023-02-07T01:19:12.185Z,3.30
2023-02-07T01:21:39.279Z,2.50
2023-02-07T01:24:06.625Z,2.88
2023-02-07T01:26:34.536Z,2.70
2023-02-07T01:29:02.400Z,5.65
2023-02-07T01:31:29.230Z,3.33
2023-02-07T01:34:00.076Z,2.92
2023-02-07T01:36:28.963Z,4.68
2023-02-07T01:38:55.880Z,3.10
2023-02-07T01:41:24.677Z,4.20
2023-02-07T01:44:01.844Z,3.37
2023-02-07T01:46:29.636Z,3.20
2023-02-07T01:48:59.639Z,3.63
2023-02-07T01:51:28.017Z,3.17
2023-02-07T01:53:57.711Z,2.97
2023-02-07T01:56:31.519Z,3.77
2023-02-07T01:58:58.677Z,3.20
2023-02-07T02:01:26.276Z,3.13
2023-02-07T02:03:55.665Z,3.55
2023-02-07T02:06:24.117Z,3.85
2023-02-07T02:08:54.549Z,2.67
2023-02-07T02:11:31.462Z,3.22
2023-02-07T02:14:13.022Z,3.10
2023-02-07T02:17:04.740Z,4.75
2023-02-07T02:20:10.127Z,3.47
2023-02-07T02:22:48.468Z,3.17
2023-02-07T02:25:42.137Z,2.58
2023-02-07T02:28:30.246Z,2.22
2023-02-07T02:31:35.182Z,2.53
2023-02-07T02:34:28.539Z,3.15
2023-02-07T02:37:13.141Z,2.43
2023-02-07T02:39:51.390Z,2.15
2023-02-07T02:42:31.605Z,2.75
2023-02-07T02:45:03.778Z,2.78
2023-02-07T02:47:32.490Z,2.33
2023-02-07T02:49:59.195Z,1.93
2023-02-07T02:52:44.609Z,3.55
2023-02-07T02:55:16.065Z,2.28
2023-02-07T02:57:53.520Z,2.33
2023-02-07T03:00:58.574Z,3.03
2023-02-07T03:03:44.592Z,3.57
2023-02-07T03:06:57.089Z,3.38
2023-02-07T03:09:41.462Z,2.78
2023-02-07T03:12:25.378Z,3.92
2023-02-07T03:15:05.884Z,3.58
2023-02-07T03:17:55.237Z,3.50
2023-02-07T03:20:36.869Z,3.72
2023-02-07T03:23:06.431Z,3.47
2023-02-07T03:25:33.463Z,3.80
2023-02-07T03:28:00.349Z,3.83
2023-02-07T03:30:31.206Z,3.63
2023-02-07T03:33:03.371Z,4.35
2023-02-07T03:35:46.414Z,3.50
2023-02-07T03:38:13.763Z,3.80
2023-02-07T03:40:46.124Z,4.30
2023-02-07T03:43:17.382Z,4.87
2023-02-07T03:45:44.136Z,4.40
2023-02-07T03:48:10.514Z,3.90
2023-02-07T03:50:37.432Z,4.03
2023-02-07T03:53:04.055Z,4.45
2023-02-07T03:55:31.700Z,4.50
2023-02-07T03:57:58.311Z,4.57
2023-02-07T04:00:24.867Z,5.03
2023-02-07T04:02:51.350Z,4.55
2023-02-07T04:05:17.872Z,4.75
2023-02-07T04:07:44.230Z,5.27
2023-02-07T04:10:11.852Z,5.18
2023-02-07T04:12:38.316Z,4.82
2023-02-07T04:15:06.256Z,6.07
2023-02-07T04:17:33.089Z,5.32
2023-02-07T04:20:01.491Z,4.97
2023-02-07T04:22:28.819Z,5.30
2023-02-07T04:24:55.352Z,6.55
2023-02-07T04:27:21.705Z,6.05
2023-02-07T04:29:48.531Z,5.10
2023-02-07T04:32:14.899Z,5.73
2023-02-07T04:34:41.261Z,5.22
2023-02-07T04:37:07.657Z,5.75
2023-02-07T04:39:34.050Z,5.85
2023-02-07T04:42:00.464Z,5.68
2023-02-07T04:44:26.915Z,5.43
2023-02-07T04:46:53.272Z,5.80
2023-02-07T04:49:19.767Z,7.28
2023-02-07T04:51:46.139Z,7.75
2023-02-07T04:54:12.681Z,6.40
2023-02-07T04:56:39.102Z,6.00
2023-02-07T04:59:05.476Z,7.43
2023-02-07T05:01:32.300Z,6.68
2023-02-07T05:03:58.747Z,6.63
2023-02-07T05:06:25.107Z,6.35
2023-02-07T05:08:51.858Z,6.90
2023-02-07T05:11:19.500Z,8.25
2023-02-07T05:13:45.894Z,7.57
2023-02-07T05:16:12.371Z,7.25
2023-02-07T05:18:38.754Z,6.32
2023-02-07T05:21:05.296Z,7.40
2023-02-07T05:23:31.683Z,8.05
2023-02-07T05:25:58.054Z,7.57
2023-02-07T05:28:24.409Z,7.40
2023-02-07T05:30:55.908Z,7.30
2023-02-07T05:33:22.379Z,8.27
2023-02-07T05:35:48.741Z,9.13
2023-02-07T05:38:17.784Z,7.03
2023-02-07T05:40:45.202Z,8.43
2023-02-07T05:43:13.258Z,7.65
2023-02-07T05:45:40.771Z,7.77
2023-02-07T05:48:08.361Z,7.45
2023-02-07T05:50:34.919Z,8.35
2023-02-07T05:53:02.585Z,8.35
2023-02-07T05:55:29.030Z,8.85
2023-02-07T05:57:55.544Z,7.73
2023-02-07T06:00:22.002Z,8.30
2023-02-07T06:02:48.440Z,7.78
2023-02-07T06:05:17.806Z,8.32
2023-02-07T06:07:44.670Z,7.85
2023-02-07T06:10:11.578Z,8.83
2023-02-07T06:12:38.153Z,9.80
2023-02-07T06:15:04.800Z,9.98
2023-02-07T06:17:31.322Z,9.45
2023-02-07T06:19:57.655Z,9.38
2023-02-07T06:22:24.018Z,11.53
2023-02-07T06:24:50.398Z,8.75
2023-02-07T06:27:16.864Z,11.73
2023-02-07T06:29:43.299Z,8.68
2023-02-07T06:32:09.665Z,8.57
2023-02-07T06:34:35.997Z,11.77
2023-02-07T06:37:02.359Z,10.65
2023-02-07T06:39:28.766Z,10.90
2023-02-07T06:41:55.132Z,10.05
2023-02-07T06:44:21.473Z,10.70
2023-02-07T06:46:47.839Z,11.60
2023-02-07T06:49:14.241Z,11.48
2023-02-07T06:51:40.625Z,10.23
2023-02-07T06:54:09.863Z,10.50
2023-02-07T06:56:37.307Z,11.98
2023-02-07T06:59:03.726Z,12.00
2023-02-07T07:01:30.429Z,12.07
2023-02-07T07:03:56.836Z,11.77
2023-02-07T07:06:23.212Z,12.57
2023-02-07T07:08:51.575Z,12.73
2023-02-07T07:11:19.128Z,10.23
2023-02-07T07:13:46.718Z,12.60
2023-02-07T07:16:13.339Z,12.10
2023-02-07T07:18:39.944Z,11.38
2023-02-07T07:21:07.059Z,12.35
2023-02-07T07:23:33.682Z,11.83
2023-02-07T07:26:00.305Z,12.63
2023-02-07T07:28:26.658Z,15.38
2023-02-07T07:30:53.246Z,11.70
2023-02-07T07:33:19.643Z,12.93
2023-02-07T07:35:45.999Z,12.23
2023-02-07T07:38:12.747Z,14.23
2023-02-07T07:40:39.572Z,14.50
2023-02-07T07:43:06.269Z,14.95
2023-02-07T07:45:32.667Z,14.40
2023-02-07T07:47:59.054Z,13.27
2023-02-07T07:50:25.420Z,12.55
2023-02-07T07:52:51.763Z,14.05
2023-02-07T07:55:18.109Z,12.55
2023-02-07T07:57:44.469Z,13.15
2023-02-07T08:00:11.593Z,11.83
2023-02-07T08:02:37.979Z,14.88
2023-02-07T08:05:04.643Z,12.43
2023-02-07T08:07:31.025Z,13.20
2023-02-07T08:09:57.368Z,12.05
2023-02-07T08:12:23.742Z,12.17
2023-02-07T08:14:50.116Z,12.52
2023-02-07T08:17:16.486Z,11.20
2023-02-07T08:19:42.827Z,12.45
2023-02-07T08:22:09.213Z,13.05
2023-02-07T08:24:36.528Z,11.67
2023-02-07T08:27:03.755Z,12.88
2023-02-07T08:29:30.105Z,12.73
2023-02-07T08:31:56.579Z,13.75
2023-02-07T08:34:26.187Z,9.02
2023-02-07T08:36:53.100Z,11.30
2023-02-07T08:39:19.809Z,12.15
2023-02-07T08:41:46.181Z,11.98
2023-02-07T08:44:12.627Z,11.15
2023-02-07T08:46:38.998Z,12.23
2023-02-07T08:49:05.338Z,11.77
2023-02-07T08:51:31.700Z,12.55
2023-02-07T08:53:58.058Z,11.35
2023-02-07T08:56:24.444Z,10.65
2023-02-07T08:58:50.803Z,11.70
2023-02-07T09:01:17.234Z,11.43
2023-02-07T09:03:43.611Z,13.20
2023-02-07T09:06:10.684Z,12.68
2023-02-07T09:08:37.294Z,11.02
2023-02-07T09:11:09.069Z,10.52
2023-02-07T09:13:35.755Z,10.27
2023-02-07T09:16:02.148Z,12.25
2023-02-07T09:18:28.546Z,11.80
2023-02-07T09:20:54.917Z,11.63
2023-02-07T09:23:21.373Z,10.98
2023-02-07T09:25:50.387Z,13.13
2023-02-07T09:28:17.409Z,10.43
2023-02-07T09:30:45.295Z,10.30
2023-02-07T09:33:13.202Z,11.73
2023-02-07T09:35:42.140Z,9.43
2023-02-07T09:38:13.176Z,9.33
2023-02-07T09:40:40.128Z,11.20
2023-02-07T09:43:36.477Z,10.88
2023-02-07T09:46:12.205Z,9.73
2023-02-07T09:48:48.885Z,10.15
2023-02-07T09:51:19.146Z,12.10
2023-02-07T09:53:55.426Z,9.68
2023-02-07T09:56:25.570Z,10.75
2023-02-07T09:59:14.496Z,8.82
2023-02-07T10:01:45.015Z,11.57
2023-02-07T10:04:23.182Z,9.30
2023-02-07T10:06:53.376Z,10.38
2023-02-07T10:09:25.823Z,10.65
2023-02-07T10:12:00.724Z,10.07
2023-02-07T10:14:45.419Z,9.88
2023-02-07T10:17:31.562Z,9.73
2023-02-07T10:20:29.241Z,10.95
2023-02-07T10:23:32.515Z,9.50
2023-02-07T10:26:20.780Z,9.15
2023-02-07T10:28:59.216Z,10.75
2023-02-07T10:31:27.487Z,10.60
2023-02-07T10:34:00.160Z,9.60
2023-02-07T10:36:29.646Z,11.40
2023-02-07T10:39:18.717Z,10.48
2023-02-07T10:41:45.294Z,10.18
2023-02-07T10:44:20.249Z,11.93
2023-02-07T10:46:54.938Z,9.40
2023-02-07T10:49:25.726Z,10.57
2023-02-07T10:51:56.879Z,10.30
2023-02-07T10:54:24.857Z,10.45
2023-02-07T10:57:02.304Z,11.17
2023-02-07T10:59:45.788Z,7.93
2023-02-07T11:02:33.307Z,10.95
2023-02-07T11:05:02.516Z,7.88
2023-02-07T11:07:32.535Z,8.95
2023-02-07T11:10:21.532Z,9.20
2023-02-07T11:12:59.193Z,12.82
2023-02-07T11:15:47.748Z,9.05
2023-02-07T11:18:53.526Z,9.20
2023-02-07T11:21:24.659Z,8.52
2023-02-07T11:23:53.207Z,9.23
2023-02-07T11:26:22.528Z,9.50
2023-02-07T11:28:54.390Z,12.38
2023-02-07T11:31:29.976Z,8.85
2023-02-07T11:34:08.986Z,9.25
2023-02-07T11:36:35.355Z,9.30
2023-02-07T11:39:01.734Z,9.55
2023-02-07T11:41:30.942Z,10.93
2023-02-07T11:44:02.129Z,8.57
2023-02-07T11:46:45.400Z,9.65
2023-02-07T11:49:26.064Z,8.80
2023-02-07T11:51:59.384Z,7.82
2023-02-07T11:54:26.791Z,10.95
2023-02-07T11:57:00.756Z,9.73
2023-02-07T11:59:28.197Z,9.50
2023-02-07T12:01:57.952Z,9.40
2023-02-07T12:04:34.868Z,9.68
2023-02-07T12:07:06.130Z,9.55
2023-02-07T12:09:46.689Z,8.68
2023-02-07T12:12:20.733Z,9.93
2023-02-07T12:15:00.208Z,9.90
2023-02-07T12:17:54.908Z,8.18
2023-02-07T12:20:32.889Z,7.20
2023-02-07T12:23:31.422Z,11.02
2023-02-07T12:25:56.077Z,10.15
2023-02-07T12:28:28.163Z,8.27
2023-02-07T12:30:59.582Z,8.18
2023-02-07T12:33:41.384Z,8.95
2023-02-07T12:36:30.028Z,8.23
2023-02-07T12:39:13.466Z,9.63
2023-02-07T12:41:48.987Z,9.53
2023-02-07T12:44:28.524Z,11.93
2023-02-07T12:47:08.147Z,16.48
2023-02-07T12:49:53.879Z,9.05
2023-02-07T12:52:44.845Z,7.47
2023-02-07T12:55:42.051Z,9.53
2023-02-07T12:58:37.478Z,8.63
2023-02-07T13:01:15.618Z,8.65
2023-02-07T13:04:12.986Z,7.85
2023-02-07T13:06:58.002Z,11.40
2023-02-07T13:09:24.308Z,9.07
2023-02-07T13:12:24.663Z,8.73
2023-02-07T13:15:18.090Z,8.18
2023-02-07T13:17:53.418Z,9.20
2023-02-07T13:20:22.819Z,10.40
2023-02-07T13:22:56.881Z,9.73
2023-02-07T13:25:28.607Z,7.63
2023-02-07T13:27:58.942Z,9.38
2023-02-07T13:30:29.697Z,8.57
2023-02-07T13:33:00.593Z,7.72
2023-02-07T13:35:32.033Z,8.23
2023-02-07T13:38:20.439Z,9.55
2023-02-07T13:40:58.680Z,8.68
2023-02-07T13:43:40.308Z,7.70
2023-02-07T13:46:27.270Z,8.38
2023-02-07T13:49:00.109Z,7.53
2023-02-07T13:52:01.006Z,7.60
2023-02-07T13:55:18.790Z,8.50
2023-02-07T13:58:03.404Z,6.97
2023-02-07T14:00:57.286Z,6.00
2023-02-07T14:03:30.383Z,7.50
2023-02-07T14:06:26.242Z,9.23
2023-02-07T14:09:17.660Z,6.20
2023-02-07T14:11:50.047Z,6.07
2023-02-07T14:14:31.349Z,5.80
2023-02-07T14:17:22.456Z,5.40
2023-02-07T14:19:51.020Z,6.38
2023-02-07T14:22:31.154Z,6.07
2023-02-07T14:25:03.581Z,6.03
2023-02-07T14:27:42.343Z,5.70
2023-02-07T14:30:11.497Z,6.73
2023-02-07T14:32:42.261Z,9.07
2023-02-07T14:35:08.542Z,7.78
2023-02-07T14:38:00.370Z,8.25
2023-02-07T14:40:35.136Z,9.68
2023-02-07T14:43:05.141Z,12.20
2023-02-07T14:45:35.314Z,8.80
2023-02-07T14:48:04.261Z,10.18
2023-02-07T14:50:33.331Z,9.45
2023-02-07T14:53:05.922Z,8.98
2023-02-07T14:55:42.563Z,9.27
2023-02-07T14:58:31.773Z,9.02
2023-02-07T15:00:59.026Z,10.05
2023-02-07T15:03:30.169Z,11.10
2023-02-07T15:06:02.926Z,18.92
2023-02-07T15:08:32.590Z,10.63
2023-02-07T15:11:12.665Z,8.85
2023-02-07T15:13:47.583Z,10.75
2023-02-07T15:16:22.464Z,7.43
2023-02-07T15:18:54.574Z,9.35
2023-02-07T15:21:33.660Z,8.00
2023-02-07T15:24:05.995Z,8.57
2023-02-07T15:26:34.922Z,8.25
2023-02-07T15:29:04.405Z,8.30
2023-02-07T15:31:31.210Z,8.70
2023-02-07T15:34:01.674Z,9.63
2023-02-07T15:36:37.272Z,8.73
2023-02-07T15:39:07.530Z,7.07
2023-02-07T15:41:34.615Z,7.55
2023-02-07T15:44:21.087Z,7.43
2023-02-07T15:47:06.869Z,8.77
2023-02-07T15:49:40.582Z,6.70
2023-02-07T15:52:25.200Z,8.27
2023-02-07T15:54:53.428Z,6.85
2023-02-07T15:57:28.306Z,7.22
2023-02-07T15:59:56.563Z,8.90
2023-02-07T16:02:28.565Z,7.35
2023-02-07T16:04:55.222Z,7.20
2023-02-07T16:07:23.766Z,8.23
2023-02-07T16:09:51.246Z,8.35
2023-02-07T16:12:53.005Z,7.23
2023-02-07T16:15:27.552Z,10.10
2023-02-07T16:17:54.560Z,7.72
2023-02-07T16:20:21.659Z,9.68
2023-02-07T16:22:48.793Z,8.18
2023-02-07T16:25:19.698Z,9.00
2023-02-07T16:27:48.901Z,10.63
2023-02-07T16:30:18.734Z,8.00
2023-02-07T16:32:45.939Z,11.43
2023-02-07T16:35:27.039Z,10.82
2023-02-07T16:37:54.429Z,9.30
2023-02-07T16:40:24.335Z,9.68
2023-02-07T16:42:53.420Z,9.82
2023-02-07T16:45:28.686Z,8.02
2023-02-07T16:47:57.833Z,9.07
2023-02-07T16:50:26.664Z,9.57
2023-02-07T16:52:57.633Z,9.43
2023-02-07T16:55:27.401Z,10.00
2023-02-07T16:57:54.794Z,10.20
2023-02-07T17:00:23.579Z,14.40
2023-02-07T17:02:51.232Z,11.07
2023-02-07T17:05:19.286Z,12.68
2023-02-07T17:07:45.921Z,12.35
2023-02-07T17:10:23.564Z,13.98
2023-02-07T17:12:49.937Z,15.98
2023-02-07T17:15:16.497Z,15.67
2023-02-07T17:17:43.145Z,16.30
2023-02-07T17:20:31.054Z,19.20
2023-02-07T17:22:57.525Z,25.23
2023-02-07T17:25:27.081Z,13.98
2023-02-07T17:27:53.569Z,15.90
2023-02-07T17:30:23.086Z,11.18
2023-02-07T17:32:49.737Z,13.60
2023-02-07T17:35:16.176Z,15.95
2023-02-07T17:37:43.170Z,12.27
2023-02-07T17:40:28.116Z,12.60
2023-02-07T17:42:54.496Z,12.57
2023-02-07T17:45:20.872Z,13.07
2023-02-07T17:47:47.400Z,20.17
2023-02-07T17:50:19.253Z,12.85
2023-02-07T17:52:46.666Z,12.03
2023-02-07T17:55:14.631Z,15.45
2023-02-07T17:57:42.142Z,13.43
2023-02-07T18:00:16.040Z,13.63
2023-02-07T18:02:42.788Z,15.20
2023-02-07T18:05:09.815Z,19.40
2023-02-07T18:07:36.406Z,13.73
2023-02-07T18:10:06.526Z,14.10
2023-02-07T18:12:33.474Z,14.35
2023-02-07T18:14:59.917Z,16.08
2023-02-07T18:17:27.076Z,17.53
2023-02-07T18:19:53.475Z,13.95
2023-02-07T18:22:19.907Z,17.50
2023-02-07T18:24:46.452Z,18.02
2023-02-07T18:27:16.978Z,15.77
2023-02-07T18:29:44.444Z,14.03
2023-02-07T18:32:12.203Z,17.85
2023-02-07T18:34:39.570Z,18.85
2023-02-07T18:37:06.307Z,19.83
2023-02-07T18:39:33.148Z,21.52
2023-02-07T18:41:59.567Z,22.87
2023-02-07T18:44:25.929Z,24.77
2023-02-07T18:46:52.376Z,21.27
2023-02-07T18:49:18.763Z,20.20
2023-02-07T18:51:45.106Z,21.80
2023-02-07T18:54:11.510Z,18.57
2023-02-07T18:56:41.197Z,19.90
2023-02-07T18:59:09.229Z,20.92
2023-02-07T19:01:35.605Z,18.75
2023-02-07T19:04:02.442Z,18.52
2023-02-07T19:06:32.860Z,19.47
2023-02-07T19:08:59.549Z,19.35
2023-02-07T19:11:26.510Z,18.75
2023-02-07T19:13:52.915Z,26.55
2023-02-07T19:16:22.078Z,30.42
2023-02-07T19:18:49.470Z,21.23
2023-02-07T19:21:19.983Z,18.42
2023-02-07T19:23:46.352Z,25.27
2023-02-07T19:26:12.708Z,21.10
2023-02-07T19:28:39.757Z,19.38
2023-02-07T19:31:09.163Z,21.60
2023-02-07T19:33:36.396Z,21.02
2023-02-07T19:36:07.720Z,23.58
2023-02-07T19:38:34.597Z,22.52
2023-02-07T19:41:01.338Z,25.92
2023-02-07T19:43:27.930Z,21.83
2023-02-07T19:45:54.420Z,20.60
2023-02-07T19:48:21.375Z,19.73
2023-02-07T19:50:48.361Z,20.30
2023-02-07T19:53:16.087Z,17.67
2023-02-07T19:55:42.480Z,15.57
2023-02-07T19:58:08.877Z,18.40
2023-02-07T20:00:35.649Z,14.43
2023-02-07T20:03:01.976Z,18.75
2023-02-07T20:05:28.665Z,19.70
2023-02-07T20:07:56.193Z,19.50
2023-02-07T20:10:22.553Z,17.42
2023-02-07T20:12:48.917Z,19.25
2023-02-07T20:15:15.437Z,16.52
2023-02-07T20:17:41.777Z,19.45
2023-02-07T20:20:08.556Z,20.73
2023-02-07T20:22:35.298Z,21.35
2023-02-07T20:25:01.857Z,21.25
2023-02-07T20:27:28.197Z,20.63
2023-02-07T20:29:54.600Z,15.15
2023-02-07T20:32:20.951Z,11.40
2023-02-07T20:34:47.376Z,11.85
2023-02-07T20:37:13.712Z,9.75
2023-02-07T20:39:40.083Z,8.88
2023-02-07T20:42:06.445Z,8.68
2023-02-07T20:44:32.813Z,9.37
2023-02-07T20:47:00.397Z,7.07
2023-02-07T20:49:29.317Z,8.68
2023-02-07T20:51:57.342Z,10.73
2023-02-07T20:54:26.877Z,8.82
2023-02-07T20:56:54.325Z,12.80
2023-02-07T20:59:29.995Z,11.30
2023-02-07T21:01:56.450Z,10.95
2023-02-07T21:04:22.920Z,14.60
2023-02-07T21:06:50.475Z,14.63
2023-02-07T21:09:16.973Z,20.43
2023-02-07T21:11:46.615Z,17.65
2023-02-07T21:14:16.282Z,14.85
2023-02-07T21:16:43.542Z,13.80
2023-02-07T21:19:10.550Z,13.05
2023-02-07T21:21:37.232Z,14.40
2023-02-07T21:24:04.589Z,10.90
2023-02-07T21:26:30.936Z,12.88
2023-02-07T21:28:59.612Z,14.60
2023-02-07T21:31:27.417Z,10.90
2023-02-07T21:33:53.893Z,12.00
2023-02-07T21:36:25.143Z,14.55
2023-02-07T21:38:53.454Z,24.45
2023-02-07T21:41:22.669Z,18.35
2023-02-07T21:43:49.041Z,32.03
2023-02-07T21:46:18.685Z,25.73
2023-02-07T21:48:46.616Z,20.55
2023-02-07T21:51:15.256Z,20.13
2023-02-07T21:53:41.713Z,29.00
2023-02-07T21:56:17.432Z,23.52
2023-02-07T21:58:44.131Z,21.83
2023-02-07T22:01:13.949Z,21.58
2023-02-07T22:03:42.988Z,15.70
2023-02-07T22:06:10.225Z,16.83
2023-02-07T22:08:37.444Z,16.45
2023-02-07T22:11:09.335Z,18.27
2023-02-07T22:13:38.047Z,18.92
2023-02-07T22:16:04.821Z,15.88
2023-02-07T22:18:31.186Z,15.35
2023-02-07T22:21:07.306Z,15.50
2023-02-07T22:23:33.647Z,17.30
2023-02-07T22:26:00.112Z,15.98
2023-02-07T22:28:26.572Z,10.15
2023-02-07T22:30:53.045Z,14.90
2023-02-07T22:33:19.579Z,21.02
2023-02-07T22:35:46.011Z,23.97
2023-02-07T22:38:13.592Z,20.77
2023-02-07T22:40:42.134Z,18.75
2023-02-07T22:43:14.823Z,25.73
2023-02-07T22:45:46.722Z,27.25
2023-02-07T22:48:15.096Z,26.63
2023-02-07T22:50:43.049Z,13.27
2023-02-07T22:53:11.488Z,14.20
2023-02-07T22:55:39.886Z,17.52
2023-02-07T22:58:06.550Z,16.73
2023-02-07T23:00:33.088Z,15.37
2023-02-07T23:03:01.091Z,10.55
2023-02-07T23:05:27.498Z,11.18
2023-02-07T23:07:53.901Z,9.57
2023-02-07T23:10:20.280Z,8.32
2023-02-07T23:12:47.026Z,9.50
2023-02-07T23:15:13.524Z,7.07
2023-02-07T23:17:39.944Z,9.48
2023-02-07T23:20:06.656Z,10.85
2023-02-07T23:22:37.461Z,8.13
2023-02-07T23:25:05.711Z,10.07
2023-02-07T23:27:32.961Z,10.82
2023-02-07T23:29:59.333Z,8.63
2023-02-07T23:32:25.704Z,12.00
2023-02-07T23:34:52.052Z,11.05
2023-02-07T23:37:20.146Z,8.60
2023-02-07T23:39:46.488Z,9.00
2023-02-07T23:42:14.006Z,7.78
2023-02-07T23:44:40.372Z,10.57
2023-02-07T23:47:07.023Z,12.88
2023-02-07T23:49:33.370Z,10.93
2023-02-07T23:51:59.752Z,9.20
2023-02-07T23:54:26.117Z,9.98
2023-02-07T23:56:52.466Z,10.05
2023-02-07T23:59:18.817Z,10.00
